createdAt,value
2023-01-21T00:01:19.574Z,-4.70
2023-01-21T00:03:46.615Z,-4.70
2023-01-21T00:06:15.016Z,-4.70
2023-01-21T00:08:41.976Z,-4.70
2023-01-21T00:11:13.679Z,-4.70
2023-01-21T00:13:41.996Z,-4.70
2023-01-21T00:16:09.835Z,-4.80
2023-01-21T00:18:36.800Z,-4.80
2023-01-21T00:21:03.695Z,-4.90
2023-01-21T00:23:30.555Z,-4.90
2023-01-21T00:26:06.564Z,-4.90
2023-01-21T00:28:36.230Z,-4.90
2023-01-21T00:31:06.746Z,-4.90
2023-01-21T00:33:34.648Z,-4.90
2023-01-21T00:36:08.712Z,-5.00
2023-01-21T00:38:36.275Z,-5.00
2023-01-21T00:41:10.702Z,-5.00
2023-01-21T00:43:39.250Z,-5.00
2023-01-21T00:46:06.726Z,-5.00
2023-01-21T00:48:34.329Z,-5.00
2023-01-21T00:51:01.290Z,-5.00
2023-01-21T00:53:32.014Z,-4.90
2023-01-21T00:56:04.263Z,-5.00
2023-01-21T00:58:31.747Z,-5.00
2023-01-21T01:01:09.170Z,-5.00
2023-01-21T01:03:38.018Z,-5.00
2023-01-21T01:06:13.311Z,-4.90
2023-01-21T01:08:40.747Z,-4.90
2023-01-21T01:11:07.907Z,-4.90
2023-01-21T01:13:36.196Z,-4.80
2023-01-21T01:16:03.913Z,-4.80
2023-01-21T01:18:34.531Z,-4.80
2023-01-21T01:21:02.405Z,-4.70
2023-01-21T01:23:29.752Z,-4.70
2023-01-21T01:26:10.590Z,-4.60
2023-01-21T01:28:37.496Z,-4.50
2023-01-21T01:31:07.890Z,-4.50
2023-01-21T01:33:36.040Z,-4.40
2023-01-21T01:36:10.475Z,-4.40
2023-01-21T01:38:37.219Z,-4.30
2023-01-21T01:41:04.393Z,-4.30
2023-01-21T01:44:04.590Z,-4.30
2023-01-21T01:46:35.442Z,-4.20
2023-01-21T01:49:19.333Z,-4.20
2023-01-21T01:51:54.611Z,-4.20
2023-01-21T01:54:35.084Z,-4.10
2023-01-21T01:57:06.649Z,-4.10
2023-01-21T01:59:33.857Z,-4.00
2023-01-21T02:02:08.937Z,-4.00
2023-01-21T02:04:46.048Z,-3.90
2023-01-21T02:07:12.836Z,-3.90
2023-01-21T02:09:39.600Z,-3.90
2023-01-21T02:12:07.289Z,-3.90
2023-01-21T02:14:42.702Z,-3.90
2023-01-21T02:18:06.102Z,-3.80
2023-01-21T02:21:47.761Z,-3.80
2023-01-21T02:25:12.931Z,-3.70
2023-01-21T02:28:25.134Z,-3.70
2023-01-21T02:31:13.358Z,-3.80
2023-01-21T02:34:21.019Z,-3.80
2023-01-21T02:37:31.027Z,-3.80
2023-01-21T02:40:13.443Z,-3.90
2023-01-21T02:42:50.979Z,-3.90
2023-01-21T02:45:32.345Z,-3.90
2023-01-21T02:48:14.601Z,-4.00
2023-01-21T02:50:46.619Z,-3.90
2023-01-21T02:53:39.560Z,-3.90
2023-01-21T02:56:15.857Z,-3.90
2023-01-21T02:58:52.355Z,-3.90
2023-01-21T03:01:58.484Z,-3.90
2023-01-21T03:04:57.005Z,-3.80
2023-01-21T03:07:34.695Z,-3.80
2023-01-21T03:10:28.901Z,-3.80
2023-01-21T03:13:06.778Z,-3.80
2023-01-21T03:16:06.583Z,-3.80
2023-01-21T03:18:44.489Z,-3.90
2023-01-21T03:21:20.907Z,-3.90
2023-01-21T03:23:52.059Z,-3.90
2023-01-21T03:26:32.351Z,-3.90
2023-01-21T03:29:07.595Z,-3.80
2023-01-21T03:31:39.208Z,-3.80
2023-01-21T03:34:13.785Z,-3.80
2023-01-21T03:37:02.907Z,-3.80
2023-01-21T03:39:54.853Z,-3.80
2023-01-21T03:42:22.766Z,-3.70
2023-01-21T03:44:49.602Z,-3.70
2023-01-21T03:47:33.949Z,-3.70
2023-01-21T03:50:05.274Z,-3.70
2023-01-21T03:52:32.923Z,-3.60
2023-01-21T03:55:00.150Z,-3.60
2023-01-21T03:57:26.906Z,-3.50
2023-01-21T03:59:54.255Z,-3.50
2023-01-21T04:02:21.186Z,-3.50
2023-01-21T04:04:48.377Z,-3.50
2023-01-21T04:07:16.170Z,-3.50
2023-01-21T04:09:43.540Z,-3.50
2023-01-21T04:12:10.658Z,-3.50
2023-01-21T04:14:37.906Z,-3.40
2023-01-21T04:17:05.079Z,-3.40
2023-01-21T04:19:32.033Z,-3.40
2023-01-21T04:21:58.782Z,-3.40
2023-01-21T04:24:25.875Z,-3.30
2023-01-21T04:26:53.282Z,-3.30
2023-01-21T04:29:20.626Z,-3.30
2023-01-21T04:31:48.183Z,-3.20
2023-01-21T04:34:16.648Z,-3.20
2023-01-21T04:36:43.371Z,-3.20
2023-01-21T04:39:11.296Z,-3.10
2023-01-21T04:41:38.112Z,-3.20
2023-01-21T04:44:05.181Z,-3.20
2023-01-21T04:46:31.919Z,-3.20
2023-01-21T04:48:58.655Z,-3.10
2023-01-21T04:51:25.430Z,-3.10
2023-01-21T04:53:52.153Z,-3.00
2023-01-21T04:56:18.869Z,-3.00
2023-01-21T04:58:45.590Z,-3.00
2023-01-21T05:01:12.340Z,-2.90
2023-01-21T05:03:39.075Z,-2.90
2023-01-21T05:06:06.009Z,-2.90
2023-01-21T05:08:38.876Z,-2.90
2023-01-21T05:11:09.319Z,-2.80
2023-01-21T05:13:36.222Z,-2.80
2023-01-21T05:16:05.724Z,-2.80
2023-01-21T05:18:32.747Z,-2.80
2023-01-21T05:20:59.775Z,-2.90
2023-01-21T05:23:26.546Z,-2.80
2023-01-21T05:25:53.322Z,-2.80
2023-01-21T05:28:20.254Z,-2.80
2023-01-21T05:30:47.065Z,-2.80
2023-01-21T05:33:13.894Z,-2.80
2023-01-21T05:35:40.677Z,-2.80
2023-01-21T05:38:09.704Z,-2.80
2023-01-21T05:40:36.451Z,-2.80
2023-01-21T05:43:03.205Z,-2.80
2023-01-21T05:45:29.943Z,-2.90
2023-01-21T05:47:56.680Z,-2.90
2023-01-21T05:50:23.435Z,-2.90
2023-01-21T05:52:51.518Z,-2.90
2023-01-21T05:55:18.790Z,-2.90
2023-01-21T05:57:45.626Z,-2.90
2023-01-21T06:00:13.294Z,-2.90
2023-01-21T06:02:40.048Z,-2.80
2023-01-21T06:05:07.358Z,-2.80
2023-01-21T06:07:34.102Z,-2.80
2023-01-21T06:10:00.802Z,-2.80
2023-01-21T06:12:27.524Z,-2.80
2023-01-21T06:14:54.264Z,-2.80
2023-01-21T06:17:21.015Z,-2.80
2023-01-21T06:19:47.883Z,-2.80
2023-01-21T06:22:18.718Z,-2.80
2023-01-21T06:24:45.509Z,-2.80
2023-01-21T06:27:12.775Z,-2.70
2023-01-21T06:29:39.543Z,-2.70
2023-01-21T06:32:06.573Z,-2.70
2023-01-21T06:34:33.391Z,-2.70
2023-01-21T06:37:00.131Z,-2.70
2023-01-21T06:39:30.731Z,-2.70
2023-01-21T06:41:58.010Z,-2.60
2023-01-21T06:44:25.032Z,-2.60
2023-01-21T06:47:00.767Z,-2.60
2023-01-21T06:49:27.888Z,-2.50
2023-01-21T06:51:54.628Z,-2.50
2023-01-21T06:54:21.383Z,-2.50
2023-01-21T06:56:48.091Z,-2.50
2023-01-21T06:59:14.839Z,-2.50
2023-01-21T07:01:41.658Z,-2.50
2023-01-21T07:04:08.458Z,-2.50
2023-01-21T07:06:35.184Z,-2.50
2023-01-21T07:09:03.641Z,-2.40
2023-01-21T07:11:31.256Z,-2.40
2023-01-21T07:13:58.234Z,-2.30
2023-01-21T07:16:25.363Z,-2.30
2023-01-21T07:18:52.377Z,-2.30
2023-01-21T07:21:19.362Z,-2.30
2023-01-21T07:23:46.627Z,-2.30
2023-01-21T07:26:13.331Z,-2.20
2023-01-21T07:28:40.026Z,-2.20
2023-01-21T07:31:06.814Z,-2.20
2023-01-21T07:33:33.647Z,-2.20
2023-01-21T07:36:00.419Z,-2.20
2023-01-21T07:38:27.527Z,-2.10
2023-01-21T07:40:54.360Z,-2.10
2023-01-21T07:43:21.189Z,-2.10
2023-01-21T07:45:48.286Z,-2.00
2023-01-21T07:48:16.688Z,-2.00
2023-01-21T07:50:43.424Z,-1.90
2023-01-21T07:53:12.301Z,-1.90
2023-01-21T07:55:39.121Z,-1.90
2023-01-21T07:58:05.943Z,-1.80
2023-01-21T08:00:32.730Z,-1.80
2023-01-21T08:02:59.528Z,-1.80
2023-01-21T08:05:26.887Z,-1.80
2023-01-21T08:07:58.288Z,-1.70
2023-01-21T08:10:26.058Z,-1.60
2023-01-21T08:12:52.867Z,-1.60
2023-01-21T08:15:19.857Z,-1.60
2023-01-21T08:17:47.413Z,-1.50
2023-01-21T08:20:14.655Z,-1.40
2023-01-21T08:22:41.402Z,-1.40
2023-01-21T08:25:08.873Z,-1.30
2023-01-21T08:27:35.590Z,-1.30
2023-01-21T08:30:02.333Z,-1.30
2023-01-21T08:32:32.139Z,-1.20
2023-01-21T08:34:58.878Z,-1.20
2023-01-21T08:37:25.748Z,-1.10
2023-01-21T08:39:52.449Z,-1.10
2023-01-21T08:42:19.242Z,-1.00
2023-01-21T08:44:46.351Z,-0.90
2023-01-21T08:47:13.043Z,-0.90
2023-01-21T08:49:39.750Z,-0.80
2023-01-21T08:52:06.581Z,-0.80
2023-01-21T08:54:33.305Z,-0.70
2023-01-21T08:57:00.046Z,-0.70
2023-01-21T08:59:28.647Z,-0.70
2023-01-21T09:01:56.775Z,-0.70
2023-01-21T09:04:23.692Z,-0.60
2023-01-21T09:06:50.461Z,-0.60
2023-01-21T09:09:17.169Z,-0.60
2023-01-21T09:11:44.259Z,-0.60
2023-01-21T09:14:11.006Z,-0.60
2023-01-21T09:16:38.518Z,-0.60
2023-01-21T09:19:05.630Z,-0.50
2023-01-21T09:21:34.543Z,-0.50
2023-01-21T09:24:02.606Z,-0.50
2023-01-21T09:26:29.450Z,-0.40
2023-01-21T09:29:01.370Z,-0.40
2023-01-21T09:31:30.492Z,-0.40
2023-01-21T09:34:03.899Z,-0.40
2023-01-21T09:36:34.157Z,-0.30
2023-01-21T09:39:01.574Z,-0.20
2023-01-21T09:41:39.528Z,-0.20
2023-01-21T09:44:14.993Z,-0.10
2023-01-21T09:47:09.799Z,-0.10
2023-01-21T09:49:49.463Z,-0.10
2023-01-21T09:52:44.153Z,-0.10
2023-01-21T09:55:23.099Z,-0.20
2023-01-21T09:58:30.181Z,-0.10
2023-01-21T10:01:15.487Z,0.00
2023-01-21T10:03:56.491Z,0.00
2023-01-21T10:06:40.619Z,0.00
2023-01-21T10:09:38.702Z,0.00
2023-01-21T10:12:34.728Z,0.00
2023-01-21T10:15:26.327Z,0.10
2023-01-21T10:18:14.883Z,0.10
2023-01-21T10:21:00.312Z,0.20
2023-01-21T10:23:38.956Z,0.20
2023-01-21T10:26:10.078Z,0.20
2023-01-21T10:28:42.383Z,0.20
2023-01-21T10:31:25.236Z,0.30
2023-01-21T10:33:52.781Z,0.30
2023-01-21T10:37:01.277Z,0.30
2023-01-21T10:39:54.827Z,0.30
2023-01-21T10:42:51.367Z,0.40
2023-01-21T10:45:48.301Z,0.40
2023-01-21T10:48:30.930Z,0.40
2023-01-21T10:51:29.642Z,0.40
2023-01-21T10:54:08.647Z,0.40
2023-01-21T10:56:47.178Z,0.30
2023-01-21T10:59:21.268Z,0.30
2023-01-21T11:02:10.074Z,0.30
2023-01-21T11:04:41.187Z,0.30
2023-01-21T11:07:14.297Z,0.30
2023-01-21T11:09:48.643Z,0.40
2023-01-21T11:12:21.927Z,0.50
2023-01-21T11:14:58.572Z,0.50
2023-01-21T11:17:33.465Z,0.50
2023-01-21T11:20:05.403Z,0.50
2023-01-21T11:22:33.169Z,0.60
2023-01-21T11:25:02.362Z,0.60
2023-01-21T11:27:34.433Z,0.70
2023-01-21T11:30:02.543Z,0.70
2023-01-21T11:32:33.172Z,0.70
2023-01-21T11:35:20.165Z,0.60
2023-01-21T11:37:47.241Z,0.70
2023-01-21T11:40:25.908Z,0.60
2023-01-21T11:42:57.335Z,0.70
2023-01-21T11:45:38.519Z,0.70
2023-01-21T11:48:20.895Z,0.60
2023-01-21T11:50:47.791Z,0.60
2023-01-21T11:53:21.797Z,0.70
2023-01-21T11:55:57.051Z,0.70
2023-01-21T11:58:32.707Z,0.70
2023-01-21T12:01:21.893Z,0.80
2023-01-21T12:03:54.538Z,0.80
2023-01-21T12:06:27.233Z,0.90
2023-01-21T12:09:04.169Z,0.90
2023-01-21T12:11:32.592Z,0.90
2023-01-21T12:14:34.400Z,1.00
2023-01-21T12:17:28.386Z,1.00
2023-01-21T12:20:19.754Z,1.30
2023-01-21T12:23:40.411Z,1.60
2023-01-21T12:26:36.690Z,1.80
2023-01-21T12:29:39.584Z,2.10
2023-01-21T12:32:39.455Z,2.30
2023-01-21T12:35:26.349Z,2.20
2023-01-21T12:38:27.815Z,2.00
2023-01-21T12:41:13.064Z,1.80
2023-01-21T12:43:54.219Z,1.60
2023-01-21T12:46:36.733Z,1.40
2023-01-21T12:49:48.981Z,1.30
2023-01-21T12:52:48.606Z,1.10
2023-01-21T12:55:30.792Z,1.00
2023-01-21T12:58:24.916Z,0.80
2023-01-21T13:00:55.132Z,0.70
2023-01-21T13:03:32.844Z,0.60
2023-01-21T13:07:05.782Z,0.50
2023-01-21T13:09:49.153Z,0.50
2023-01-21T13:12:22.532Z,0.40
2023-01-21T13:15:01.479Z,0.40
2023-01-21T13:17:42.558Z,0.40
2023-01-21T13:20:22.076Z,0.50
2023-01-21T13:22:56.010Z,0.40
2023-01-21T13:25:34.971Z,0.40
2023-01-21T13:28:19.741Z,0.40
2023-01-21T13:30:46.460Z,0.30
2023-01-21T13:33:39.699Z,0.30
2023-01-21T13:36:33.903Z,0.40
2023-01-21T13:39:17.642Z,0.30
2023-01-21T13:42:04.135Z,-0.20
2023-01-21T13:45:30.560Z,0.30
2023-01-21T13:48:26.796Z,0.20
2023-01-21T13:51:15.372Z,0.20
2023-01-21T13:54:11.511Z,0.20
2023-01-21T13:57:06.159Z,0.30
2023-01-21T13:59:56.300Z,0.30
2023-01-21T14:02:37.361Z,0.30
2023-01-21T14:05:39.695Z,0.30
2023-01-21T14:08:38.705Z,0.30
2023-01-21T14:11:22.824Z,0.30
2023-01-21T14:14:28.552Z,0.20
2023-01-21T14:17:28.492Z,0.20
2023-01-21T14:20:19.123Z,0.20
2023-01-21T14:23:18.247Z,0.20
2023-01-21T14:26:06.266Z,0.10
2023-01-21T14:29:09.531Z,0.10
2023-01-21T14:31:47.109Z,0.20
2023-01-21T14:34:29.881Z,0.20
2023-01-21T14:37:11.707Z,0.20
2023-01-21T14:40:11.001Z,0.20
2023-01-21T14:42:51.058Z,0.10
2023-01-21T14:45:25.757Z,0.10
2023-01-21T14:47:55.565Z,0.10
2023-01-21T14:50:45.884Z,0.10
2023-01-21T14:53:27.112Z,0.00
2023-01-21T14:56:22.234Z,0.00
2023-01-21T14:59:00.402Z,0.00
2023-01-21T15:01:45.165Z,0.00
2023-01-21T15:04:25.903Z,0.00
2023-01-21T15:07:03.193Z,-0.10
2023-01-21T15:09:37.121Z,-0.10
2023-01-21T15:12:15.678Z,-0.20
2023-01-21T15:14:44.698Z,-0.20
2023-01-21T15:18:03.799Z,0.10
2023-01-21T15:20:42.539Z,-0.30
2023-01-21T15:23:30.181Z,-0.30
2023-01-21T15:26:32.021Z,-0.30
2023-01-21T15:29:29.894Z,-0.30
2023-01-21T15:32:31.137Z,-0.30
2023-01-21T15:35:35.321Z,-0.30
2023-01-21T15:38:11.707Z,-0.30
2023-01-21T15:40:48.129Z,-0.30
2023-01-21T15:43:40.537Z,-0.30
2023-01-21T15:46:34.779Z,-0.40
2023-01-21T15:49:31.824Z,-0.30
2023-01-21T15:52:20.575Z,-0.30
2023-01-21T15:55:24.335Z,-0.30
2023-01-21T15:58:46.482Z,-0.30
2023-01-21T16:01:32.665Z,-0.30
2023-01-21T16:04:15.821Z,-0.30
2023-01-21T16:07:09.578Z,-0.40
2023-01-21T16:10:03.047Z,-0.40
2023-01-21T16:13:13.477Z,-0.40
2023-01-21T16:16:07.494Z,-0.40
2023-01-21T16:19:03.228Z,-0.50
2023-01-21T16:21:34.935Z,-0.50
2023-01-21T16:24:11.099Z,-0.50
2023-01-21T16:26:37.832Z,-0.50
2023-01-21T16:29:11.175Z,-0.50
2023-01-21T16:32:01.372Z,-0.50
2023-01-21T16:34:30.871Z,-0.50
2023-01-21T16:36:58.059Z,-0.50
2023-01-21T16:39:25.909Z,-0.50
2023-01-21T16:42:05.524Z,-0.50
2023-01-21T16:44:34.159Z,-0.50
2023-01-21T16:47:02.473Z,-0.50
2023-01-21T16:49:29.534Z,-0.50
2023-01-21T16:52:05.128Z,-0.50
2023-01-21T16:54:33.141Z,-0.30
2023-01-21T16:57:22.759Z,-0.50
2023-01-21T16:59:49.788Z,-0.50
2023-01-21T17:02:28.978Z,-0.60
2023-01-21T17:04:58.983Z,-0.60
2023-01-21T17:07:34.928Z,-0.60
2023-01-21T17:10:17.151Z,-0.60
2023-01-21T17:12:52.937Z,-0.60
2023-01-21T17:15:38.414Z,-0.60
2023-01-21T17:18:10.705Z,-0.60
2023-01-21T17:20:49.115Z,-0.60
2023-01-21T17:23:18.783Z,-0.60
2023-01-21T17:25:56.629Z,-0.60
2023-01-21T17:28:46.962Z,-0.60
2023-01-21T17:31:16.829Z,-0.60
2023-01-21T17:33:44.147Z,-0.60
2023-01-21T17:36:15.965Z,-0.60
2023-01-21T17:38:46.394Z,-0.60
2023-01-21T17:41:29.023Z,-0.60
2023-01-21T17:43:56.587Z,-0.60
2023-01-21T17:46:24.674Z,-0.60
2023-01-21T17:48:58.944Z,-0.60
2023-01-21T17:51:30.469Z,-0.70
2023-01-21T17:54:05.131Z,-0.60
2023-01-21T17:56:48.808Z,-0.70
2023-01-21T17:59:38.478Z,-0.70
2023-01-21T18:02:17.395Z,-0.70
2023-01-21T18:04:44.700Z,-0.60
2023-01-21T18:07:37.785Z,-0.70
2023-01-21T18:10:14.080Z,-0.70
2023-01-21T18:12:40.795Z,-0.70
2023-01-21T18:15:08.188Z,-0.70
2023-01-21T18:17:37.502Z,-0.70
2023-01-21T18:20:12.118Z,-0.70
2023-01-21T18:22:38.826Z,-0.70
2023-01-21T18:25:06.718Z,-0.70
2023-01-21T18:27:33.514Z,-0.70
2023-01-21T18:30:01.673Z,-0.70
2023-01-21T18:32:28.413Z,-0.70
2023-01-21T18:34:55.137Z,-0.80
2023-01-21T18:37:21.825Z,-0.70
2023-01-21T18:39:48.707Z,-0.70
2023-01-21T18:42:18.004Z,-0.70
2023-01-21T18:44:45.245Z,-0.70
2023-01-21T18:47:18.012Z,-0.70
2023-01-21T18:49:47.523Z,-0.70
2023-01-21T18:52:17.814Z,-0.70
2023-01-21T18:54:44.982Z,-0.70
2023-01-21T18:57:17.138Z,-0.70
2023-01-21T18:59:43.992Z,-0.80
2023-01-21T19:02:17.901Z,-0.80
2023-01-21T19:04:46.374Z,-0.80
2023-01-21T19:07:20.357Z,-0.80
2023-01-21T19:09:50.459Z,-0.80
2023-01-21T19:12:21.008Z,-0.80
2023-01-21T19:14:48.701Z,-0.80
2023-01-21T19:17:28.676Z,-0.80
2023-01-21T19:19:56.961Z,-0.80
2023-01-21T19:22:23.791Z,-0.80
2023-01-21T19:24:50.708Z,-0.90
2023-01-21T19:27:29.874Z,-0.80
2023-01-21T19:29:56.791Z,-0.80
2023-01-21T19:32:23.762Z,-0.90
2023-01-21T19:34:50.641Z,-0.90
2023-01-21T19:37:21.641Z,-0.90
2023-01-21T19:39:48.356Z,-0.90
2023-01-21T19:42:16.465Z,-0.90
2023-01-21T19:44:43.231Z,-0.90
2023-01-21T19:47:27.944Z,-0.90
2023-01-21T19:49:54.662Z,-0.90
2023-01-21T19:52:21.402Z,-0.80
2023-01-21T19:54:48.125Z,-0.90
2023-01-21T19:57:17.508Z,-0.80
2023-01-21T19:59:45.809Z,-0.80
2023-01-21T20:02:12.897Z,-0.80
2023-01-21T20:04:39.716Z,-0.80
2023-01-21T20:07:07.160Z,-0.80
2023-01-21T20:09:33.910Z,-0.80
2023-01-21T20:12:03.333Z,-0.80
2023-01-21T20:14:31.126Z,-0.80
2023-01-21T20:16:57.972Z,-0.80
2023-01-21T20:19:24.703Z,-0.80
2023-01-21T20:22:01.281Z,-0.80
2023-01-21T20:24:30.103Z,-0.80
2023-01-21T20:26:58.309Z,-0.80
2023-01-21T20:29:26.854Z,-0.80
2023-01-21T20:31:54.223Z,-0.80
2023-01-21T20:34:21.067Z,-0.80
2023-01-21T20:36:49.462Z,-0.80
2023-01-21T20:39:16.158Z,-0.80
2023-01-21T20:41:43.394Z,-0.80
2023-01-21T20:44:10.592Z,-0.80
2023-01-21T20:46:43.308Z,-0.80
2023-01-21T20:49:11.775Z,-0.80
2023-01-21T20:51:38.557Z,-0.70
2023-01-21T20:54:05.329Z,-0.70
2023-01-21T20:56:32.864Z,-0.70
2023-01-21T20:58:59.947Z,-0.70
2023-01-21T21:01:28.530Z,-0.70
2023-01-21T21:03:55.359Z,-0.70
2023-01-21T21:06:27.585Z,-0.70
2023-01-21T21:08:54.586Z,-0.70
2023-01-21T21:11:21.754Z,-0.70
2023-01-21T21:13:51.633Z,-0.70
2023-01-21T21:16:27.565Z,-0.70
2023-01-21T21:18:54.411Z,-0.70
2023-01-21T21:21:23.513Z,-0.70
2023-01-21T21:23:52.200Z,-0.70
2023-01-21T21:26:24.070Z,-0.70
2023-01-21T21:28:54.649Z,-0.70
2023-01-21T21:31:22.607Z,-0.70
2023-01-21T21:33:49.877Z,-0.70
2023-01-21T21:36:20.559Z,-0.70
2023-01-21T21:38:48.828Z,-0.70
2023-01-21T21:41:37.278Z,-0.70
2023-01-21T21:44:05.720Z,-0.70
2023-01-21T21:46:51.232Z,-0.70
2023-01-21T21:49:18.203Z,-0.70
2023-01-21T21:51:45.943Z,-0.70
2023-01-21T21:54:15.572Z,-0.70
2023-01-21T21:56:42.811Z,-0.70
2023-01-21T21:59:11.246Z,-0.70
2023-01-21T22:01:38.733Z,-0.60
2023-01-21T22:04:05.582Z,-0.60
2023-01-21T22:06:33.197Z,-0.60
2023-01-21T22:09:00.198Z,-0.60
2023-01-21T22:11:28.589Z,-0.60
2023-01-21T22:13:56.723Z,-0.60
2023-01-21T22:16:27.156Z,-0.60
2023-01-21T22:18:55.982Z,-0.60
2023-01-21T22:21:26.896Z,-0.60
2023-01-21T22:23:54.751Z,-0.60
2023-01-21T22:26:24.942Z,-0.60
2023-01-21T22:28:52.694Z,-0.60
2023-01-21T22:31:25.720Z,-0.60
2023-01-21T22:33:53.016Z,-0.60
2023-01-21T22:36:23.627Z,-0.60
2023-01-21T22:38:51.725Z,-0.60
2023-01-21T22:41:22.523Z,-0.60
2023-01-21T22:43:50.378Z,-0.60
2023-01-21T22:46:24.268Z,-0.60
2023-01-21T22:48:53.448Z,-0.60
2023-01-21T22:51:22.782Z,-0.60
2023-01-21T22:53:50.481Z,-0.60
2023-01-21T22:56:23.411Z,-0.60
2023-01-21T22:58:50.462Z,-0.60
2023-01-21T23:01:27.273Z,-0.60
2023-01-21T23:03:54.600Z,-0.60
2023-01-21T23:06:21.483Z,-0.60
2023-01-21T23:08:48.686Z,-0.60
2023-01-21T23:11:17.835Z,-0.60
2023-01-21T23:13:45.123Z,-0.60
2023-01-21T23:16:16.898Z,-0.60
2023-01-21T23:18:43.937Z,-0.60
2023-01-21T23:21:19.015Z,-0.50
2023-01-21T23:23:45.902Z,-0.60
2023-01-21T23:26:14.317Z,-0.50
2023-01-21T23:28:41.310Z,-0.50
2023-01-21T23:31:13.255Z,-0.50
2023-01-21T23:33:41.372Z,-0.50
2023-01-21T23:36:15.556Z,-0.60
2023-01-21T23:38:43.148Z,-0.50
2023-01-21T23:41:13.908Z,-0.60
2023-01-21T23:43:40.888Z,-0.50
2023-01-21T23:46:13.111Z,-0.50
2023-01-21T23:48:39.999Z,-0.50
2023-01-21T23:51:12.139Z,-0.50
2023-01-21T23:53:38.959Z,-0.50
2023-01-21T23:56:15.270Z,-0.50
2023-01-21T23:58:42.112Z,-0.50
